Архив погоды в Лукоянове

Метеограмма Лукоянов
Вторник, 19 Июня
Время местн. Темп Ветер Видим Явления Облачность нижн/средн/верх Атм. давл. Влжн Точка росы ВНГО R Сост. почвы Tg s
Напр Скр Прв ур.ст ур.м изм
00:00 +15.6° З 1 2 10 км - ясно 742 761 0 83% +12.7° более 2.5 км - - - -
Понедельник, 18 Июня
Время местн. Темп Ветер Видим Явления Облачность нижн/средн/верх Атм. давл. Влжн Точка росы ВНГО R Сост. почвы Tg s
Напр Скр Прв ур.ст ур.м изм
21:00 +20.6° З,С-З 1 4 10 км - ясно 742 761 +0.2 59% +12.4° более 2.5 км - - - -
18:00 +25° С,С-В 2 6 20 км - переменная облачность 741 760 -0.6 34% +8.2° 1.5 км 0 - - -
15:00 +27.2° С 3 6 20 км - переменная облачность 742 761 -0.5 31% +8.8° 1.5 км - - - -
12:00 +26.2° С,С-З 3 8 20 км - переменная облачность 743 761 -0.4 35% +9.5° 1.5 км - - - -
09:00 +23.8° З,С-З 1 4 20 км - ясно 743 762 -0.3 55% +14.3° более 2.5 км - - - -
06:00 +14.8° З 2 3 20 км - переменная облачность 743 763 0 78% +11.1° 1.5 км - Влажная (без луж) - -
03:00 +13° З 2 3 10 км - ясно 743 763 0 84% +10.3° более 2.5 км - - - -
00:00 +16.4° З,С-З 1 2 10 км - ясно 743 762 -0.2 70% +11° более 2.5 км - - - -
Воскресенье, 17 Июня
Время местн. Темп Ветер Видим Явления Облачность нижн/средн/верх Атм. давл. Влжн Точка росы ВНГО R Сост. почвы Tg s
Напр Скр Прв ур.ст ур.м изм
21:00 +20° С,С-З 2 3 10 км - переменная облачность 743 762 +0.1 54% +10.4° 1.5 км - - - -
18:00 +24.5° С-З 2 5 20 км - переменная облачность 743 762 -0.9 35% +8° 1.5 км - - - -
15:00 +24.7° С 3 9 20 км - переменная облачность 744 763 -0.9 32% +6.7° 1.5 км - - - -
12:00 +23.2° С 3 7 20 км - переменная облачность 745 764 -0.8 31% +5.3° более 2.5 км - - - -
09:00 +20.1° З,С-З 2 5 20 км - облачно с прояснениями 746 765 -0.4 45% +7.7° более 2.5 км - - - -
06:00 +10.4° З 2 4 20 км - ясно 746 766 +0.2 77% +6.5° более 2.5 км - Влажная (без луж) - -
03:00 +8° З 2 3 10 км - ясно 746 766 +0.2 80% +4.8° более 2.5 км - - - -
00:00 +10.8° З 1 2 10 км - ясно 746 766 +0.2 70% +5.6° более 2.5 км - - - -
Суббота, 16 Июня
Время местн. Темп Ветер Видим Явления Облачность нижн/средн/верх Атм. давл. Влжн Точка росы ВНГО R Сост. почвы Tg s
Напр Скр Прв ур.ст ур.м изм
21:00 +13.8° С 1 6 10 км - ясно 746 765 +0.3 55% +4.8° более 2.5 км - - - -
18:00 +20° С 2 8 20 км - ясно 745 765 -0.3 32% +3° более 2.5 км 0 - - -
15:00 +20.4° С 3 7 20 км - переменная облачность 746 765 -0.4 36% +4.8° 1 км - - - -
12:00 +18.6° З,С-З 1 6 20 км - облачно с прояснениями 746 765 -0.6 45% +6.5° 1 км - - - -
09:00 +17.2° С-З 2 4 20 км - переменная облачность 747 766 +0.2 48% +6.2° более 2.5 км - - - -
06:00 +8.9° З 1 2 20 км - облачно 747 766 +0.5 80% +5.6° более 2.5 км - Влажная (без луж) - -
03:00 +5.9° З 1 3 10 км - облачно 746 766 +0.3 88% +4° более 2.5 км - - - -
00:00 +8.1° З 2 2 10 км - ясно 746 766 +0.4 72% +3.4° более 2.5 км - - - -
Пятница, 15 Июня
Время местн. Темп Ветер Видим Явления Облачность нижн/средн/верх Атм. давл. Влжн Точка росы ВНГО R Сост. почвы Tg s
Напр Скр Прв ур.ст ур.м изм
21:00 +10.8° С 1 1 10 км - ясно 745 765 -0.2 61% +3.6° более 2.5 км - - - -